Time;durP1;ratioP1;P1;durP2;ratioP2;P2;SDS_P1;SDS_P2;PMS_P1;PMS_P2;Temp;Humidity;BMP_temperature;BMP_pressure;BME280_temperature;BME280_humidity;BME280_pressure;Samples;Min_cycle;Max_cycle;Signal;HPM_P1;HPM_P2
2022/06/18 17:08:37;;;;;;;6.23;5.47;;;;;;;;;;6188972;23;20384;-85
2022/06/18 17:11:04;;;;;;;6.15;5.60;;;;;;;;;;6217368;23;20096;-88
2022/06/18 17:13:29;;;;;;;6.05;5.50;;;;;;;;;;6217368;23;20007;-91
2022/06/18 17:15:56;;;;;;;6.55;5.65;;;;;;;;;;6216855;23;20008;-78
2022/06/18 17:18:22;;;;;;;5.68;5.28;;;;;;;;;;6216831;23;20092;-82
2022/06/18 17:20:50;;;;;;;7.25;5.55;;;;;;;;;;6216996;23;20035;-79
2022/06/18 17:23:19;;;;;;;6.35;5.80;;;;;;;;;;6217718;23;20036;-88
2022/06/18 17:31:18;;;;;;;6.63;5.40;;;;;;;;;;6217253;23;20064;-90
2022/06/18 17:33:46;;;;;;;5.88;5.43;;;;;;;;;;6217030;23;20000;-90
2022/06/18 17:36:18;;;;;;;6.32;5.82;;;;;;;;;;6217410;23;20047;-84
2022/06/18 17:38:48;;;;;;;7.55;6.20;;;;;;;;;;6217445;23;20031;-86
2022/06/18 17:41:14;;;;;;;6.50;6.00;;;;;;;;;;6217160;23;20008;-88
2022/06/18 17:43:42;;;;;;;6.60;5.78;;;;;;;;;;6217138;23;20027;-89
2022/06/18 17:46:12;;;;;;;6.88;6.28;;;;;;;;;;6217857;23;20001;-89
2022/06/18 17:48:38;;;;;;;6.28;5.78;;;;;;;;;;6217456;23;20084;-88
2022/06/18 17:51:03;;;;;;;7.05;5.90;;;;;;;;;;6217232;23;20040;-91
2022/06/18 17:53:36;;;;;;;7.45;6.75;;;;;;;;;;6219070;23;20012;-94
2022/06/18 17:56:06;;;;;;;7.80;7.00;;;;;;;;;;6193977;23;20004;-95
2022/06/18 17:58:33;;;;;;;7.25;6.60;;;;;;;;;;6191944;23;20032;-93
2022/06/18 18:01:00;;;;;;;6.22;5.72;;;;;;;;;;6218361;23;20024;-89
2022/06/18 18:03:26;;;;;;;6.75;6.10;;;;;;;;;;6218592;23;20055;-90
2022/06/18 18:05:51;;;;;;;8.68;5.93;;;;;;;;;;6217990;23;20416;-87
2022/06/18 18:08:17;;;;;;;5.97;5.47;;;;;;;;;;6217647;23;20013;-92
2022/06/18 18:10:44;;;;;;;26.38;13.98;;;;;;;;;;6217309;23;20347;-87
2022/06/18 18:13:11;;;;;;;21.30;13.00;;;;;;;;;;6217067;23;20416;-90
2022/06/18 18:15:38;;;;;;;88.63;41.72;;;;;;;;;;6219441;23;20001;-90
2022/06/18 18:18:04;;;;;;;28.92;16.08;;;;;;;;;;6217802;23;20028;-89
2022/06/18 18:20:29;;;;;;;12.00;8.73;;;;;;;;;;6216608;23;20005;-92
2022/06/18 18:22:55;;;;;;;6.65;6.03;;;;;;;;;;6216885;23;20008;-88
2022/06/18 18:25:21;;;;;;;6.85;5.97;;;;;;;;;;6217739;23;19996;-91
2022/06/18 18:27:51;;;;;;;6.53;5.90;;;;;;;;;;6218890;23;20052;-96
2022/06/18 18:30:18;;;;;;;6.50;5.90;;;;;;;;;;6190303;23;20012;-88
2022/06/18 18:32:44;;;;;;;6.47;5.13;;;;;;;;;;6190093;23;20023;-89
2022/06/18 18:35:13;;;;;;;6.97;6.15;;;;;;;;;;6216857;23;20349;-90
2022/06/18 18:37:39;;;;;;;6.90;6.22;;;;;;;;;;6218451;23;20324;-89
2022/06/18 18:40:05;;;;;;;8.57;7.80;;;;;;;;;;6217781;23;20004;-87
2022/06/18 18:42:31;;;;;;;7.00;6.40;;;;;;;;;;6216670;23;20004;-85
2022/06/18 18:44:56;;;;;;;7.43;6.70;;;;;;;;;;6217258;23;20027;-84
2022/06/18 18:47:23;;;;;;;5.97;5.47;;;;;;;;;;6218549;23;20001;-84
2022/06/18 18:49:49;;;;;;;6.95;6.35;;;;;;;;;;6191841;23;20331;-86
2022/06/18 18:52:14;;;;;;;7.95;6.60;;;;;;;;;;6216331;23;20004;-84
2022/06/18 18:54:40;;;;;;;7.70;6.95;;;;;;;;;;6216026;23;20408;-84
2022/06/18 18:57:06;;;;;;;7.10;6.50;;;;;;;;;;6215982;23;20076;-83
2022/06/18 18:59:33;;;;;;;7.28;6.57;;;;;;;;;;6216658;23;20416;-88
2022/06/18 19:01:59;;;;;;;6.25;5.75;;;;;;;;;;6216550;23;20005;-86
2022/06/18 19:04:25;;;;;;;6.55;5.53;;;;;;;;;;6216275;23;20083;-86
2022/06/18 19:06:51;;;;;;;8.50;5.90;;;;;;;;;;6216437;23;20001;-86
2022/06/18 19:09:16;;;;;;;7.30;6.50;;;;;;;;;;6216026;23;20024;-86
2022/06/18 19:14:27;;;;;;;8.02;6.63;;;;;;;;;;6216217;23;20111;-86
2022/06/18 19:16:53;;;;;;;6.40;5.90;;;;;;;;;;6216261;23;20028;-87
2022/06/18 19:19:18;;;;;;;7.38;6.32;;;;;;;;;;6216104;23;20435;-86
2022/06/18 19:21:46;;;;;;;5.90;5.40;;;;;;;;;;6216528;23;20070;-86
2022/06/18 19:24:12;;;;;;;6.47;5.70;;;;;;;;;;6216120;23;20005;-86
2022/06/18 19:26:38;;;;;;;6.93;6.22;;;;;;;;;;6216657;23;20434;-89
2022/06/18 19:29:04;;;;;;;7.28;6.47;;;;;;;;;;6216380;23;20027;-86
2022/06/18 19:31:30;;;;;;;6.65;6.03;;;;;;;;;;6216544;23;20078;-90
2022/06/18 19:33:56;;;;;;;6.72;6.13;;;;;;;;;;6190517;23;19996;-91
2022/06/18 19:36:22;;;;;;;7.20;6.50;;;;;;;;;;6190663;23;20009;-91
2022/06/18 19:38:47;;;;;;;6.18;5.53;;;;;;;;;;6189653;23;20419;-90
2022/06/18 19:41:16;;;;;;;6.60;6.00;;;;;;;;;;6216781;23;20004;-90
2022/06/18 19:43:42;;;;;;;6.40;5.88;;;;;;;;;;6190699;23;20491;-90
2022/06/18 19:46:10;;;;;;;6.18;5.57;;;;;;;;;;6190064;23;20032;-91
2022/06/18 19:48:38;;;;;;;8.43;6.22;;;;;;;;;;6216827;23;20058;-91
2022/06/18 19:51:12;;;;;;;7.53;6.07;;;;;;;;;;6190070;23;20015;-91
2022/06/18 19:53:41;;;;;;;7.05;6.40;;;;;;;;;;6190183;23;20005;-91
2022/06/18 19:56:06;;;;;;;7.43;5.72;;;;;;;;;;6191843;23;20008;-93
2022/06/18 19:58:32;;;;;;;7.38;6.28;;;;;;;;;;6190819;23;19996;-92
2022/06/18 20:00:58;;;;;;;7.10;6.43;;;;;;;;;;6190928;23;20036;-92
2022/06/18 20:03:24;;;;;;;8.20;6.32;;;;;;;;;;6190525;23;20424;-92
2022/06/18 20:05:50;;;;;;;7.03;6.20;;;;;;;;;;6190630;23;20000;-92
2022/06/18 20:08:15;;;;;;;7.70;6.20;;;;;;;;;;6190157;23;20027;-93
2022/06/18 20:10:40;;;;;;;7.18;6.47;;;;;;;;;;6190732;23;20019;-91
2022/06/18 20:13:06;;;;;;;7.18;6.57;;;;;;;;;;6190668;23;20092;-93
2022/06/18 20:15:33;;;;;;;8.07;6.20;;;;;;;;;;6191048;23;20011;-92
2022/06/18 20:17:59;;;;;;;6.70;6.10;;;;;;;;;;6217313;23;20027;-93
2022/06/18 20:20:27;;;;;;;6.57;5.97;;;;;;;;;;6217042;23;20420;-93
2022/06/18 20:22:53;;;;;;;6.38;5.53;;;;;;;;;;6190462;23;20132;-92
2022/06/18 20:25:20;;;;;;;6.60;6.03;;;;;;;;;;6190739;23;19997;-91
2022/06/18 20:27:45;;;;;;;6.82;5.97;;;;;;;;;;6190697;23;20036;-94
2022/06/18 20:30:12;;;;;;;7.10;6.40;;;;;;;;;;6190626;23;20012;-93
2022/06/18 20:32:42;;;;;;;6.57;6.10;;;;;;;;;;6190353;23;20058;-93
2022/06/18 20:35:16;;;;;;;6.90;6.20;;;;;;;;;;6216410;23;20004;-92
2022/06/18 20:37:41;;;;;;;7.10;6.53;;;;;;;;;;6217021;23;20051;-92
2022/06/18 20:40:07;;;;;;;7.32;6.30;;;;;;;;;;6216596;23;20392;-93
2022/06/18 20:42:32;;;;;;;7.07;5.95;;;;;;;;;;6216437;23;20058;-93
2022/06/18 20:44:58;;;;;;;6.63;6.07;;;;;;;;;;6216459;23;20001;-92
2022/06/18 20:47:23;;;;;;;8.13;7.13;;;;;;;;;;6190153;23;20004;-92
2022/06/18 20:49:49;;;;;;;6.90;6.20;;;;;;;;;;6217687;23;20438;-93
2022/06/18 20:52:14;;;;;;;6.80;6.20;;;;;;;;;;6218775;23;20012;-94
2022/06/18 20:57:25;;;;;;;7.03;6.32;;;;;;;;;;6218679;23;20078;-92
2022/06/18 20:59:57;;;;;;;7.05;6.35;;;;;;;;;;6191908;23;20058;-92
2022/06/18 21:02:27;;;;;;;7.20;6.60;;;;;;;;;;6218163;23;20447;-91
2022/06/18 21:04:54;;;;;;;6.63;6.03;;;;;;;;;;6191511;23;20001;-92
2022/06/18 21:07:20;;;;;;;6.68;6.07;;;;;;;;;;6218046;23;20084;-91
2022/06/18 21:09:46;;;;;;;7.28;5.60;;;;;;;;;;6191607;23;20012;-91
2022/06/18 21:12:13;;;;;;;6.30;5.70;;;;;;;;;;6191392;23;20012;-91
2022/06/18 21:14:40;;;;;;;7.30;6.28;;;;;;;;;;6191048;23;20431;-90
2022/06/18 21:17:06;;;;;;;6.95;6.20;;;;;;;;;;6191021;23;20008;-90
2022/06/18 21:19:32;;;;;;;7.40;6.20;;;;;;;;;;6191305;23;20317;-90
2022/06/18 21:21:59;;;;;;;7.15;6.45;;;;;;;;;;6191134;23;20087;-89
2022/06/18 21:24:27;;;;;;;7.78;6.05;;;;;;;;;;6217673;23;20000;-89
2022/06/18 21:26:53;;;;;;;8.57;6.30;;;;;;;;;;6217691;23;20413;-89
2022/06/18 21:29:19;;;;;;;7.85;7.05;;;;;;;;;;6190674;23;20000;-89
2022/06/18 21:37:16;;;;;;;6.85;6.25;;;;;;;;;;6217384;23;20010;-88
2022/06/18 21:39:41;;;;;;;;;;;;;;;;;;6190942;23;20011;-89
2022/06/18 21:42:08;;;;;;;6.65;6.03;;;;;;;;;;6217467;23;19939;-88
2022/06/18 21:44:35;;;;;;;6.88;6.28;;;;;;;;;;6217420;23;20416;-90
2022/06/18 21:47:02;;;;;;;6.70;6.10;;;;;;;;;;6192544;23;20005;-92
2022/06/18 21:49:29;;;;;;;6.63;5.85;;;;;;;;;;6218782;23;20005;-91
2022/06/18 21:51:56;;;;;;;7.28;6.57;;;;;;;;;;6191043;23;20000;-88
2022/06/18 21:54:23;;;;;;;8.88;6.32;;;;;;;;;;6217332;23;20420;-92
